Time;durP1;ratioP1;P1;durP2;ratioP2;P2;SDS_P1;SDS_P2;PMS_P1;PMS_P2;Temp;Humidity;BMP_temperature;BMP_pressure;BME280_temperature;BME280_humidity;BME280_pressure;Samples;Min_cycle;Max_cycle;Signal;HPM_P1;HPM_P2
2021/01/21 00:00:18;;;;;;;2.70;1.40;;;11.60;74.70;;;;;;5075447;28;20448;-75
2021/01/21 00:02:45;;;;;;;3.47;1.50;;;11.60;73.70;;;;;;5075352;28;20502;-74
2021/01/21 00:05:12;;;;;;;3.70;1.63;;;11.60;74.00;;;;;;5075131;28;20436;-75
2021/01/21 00:07:38;;;;;;;2.60;1.40;;;11.60;74.10;;;;;;5075211;28;20472;-75
2021/01/21 00:10:05;;;;;;;3.83;1.20;;;11.50;74.20;;;;;;5075149;28;20449;-75
2021/01/21 00:12:31;;;;;;;3.20;1.60;;;11.40;73.70;;;;;;5074947;28;20480;-75
2021/01/21 00:14:58;;;;;;;2.77;1.50;;;11.40;73.80;;;;;;5075262;28;20438;-74
2021/01/21 00:17:25;;;;;;;4.97;1.83;;;11.40;73.80;;;;;;5075130;28;20480;-75
2021/01/21 00:19:51;;;;;;;2.60;1.40;;;11.40;74.00;;;;;;5075143;28;20498;-75
2021/01/21 00:22:17;;;;;;;4.00;1.67;;;11.40;74.20;;;;;;5074971;28;20448;-75
2021/01/21 00:24:43;;;;;;;2.77;1.20;;;11.40;74.70;;;;;;5074712;28;20433;-74
2021/01/21 00:27:09;;;;;;;2.07;1.30;;;11.30;74.40;;;;;;5074957;28;20455;-74
2021/01/21 00:29:36;;;;;;;1.50;1.20;;;11.30;74.10;;;;;;5074910;28;20437;-74
2021/01/21 00:32:02;;;;;;;1.73;1.20;;;11.30;74.10;;;;;;5074832;28;20503;-75
2021/01/21 00:34:29;;;;;;;2.37;1.40;;;11.30;74.20;;;;;;5074864;28;20429;-75
2021/01/21 00:36:55;;;;;;;2.60;0.93;;;11.40;73.90;;;;;;5074501;28;20448;-74
2021/01/21 00:39:21;;;;;;;1.43;1.07;;;11.40;73.70;;;;;;5074663;28;20476;-75
2021/01/21 00:41:48;;;;;;;5.40;1.63;;;11.40;73.50;;;;;;5074314;28;20455;-74
2021/01/21 00:44:14;;;;;;;1.50;1.40;;;11.40;73.60;;;;;;5074531;28;20533;-74
2021/01/21 00:46:40;;;;;;;2.90;1.57;;;11.40;73.40;;;;;;5074560;28;20440;-75
2021/01/21 00:49:06;;;;;;;2.43;1.50;;;11.40;72.90;;;;;;5074231;28;20953;-74
2021/01/21 00:51:33;;;;;;;4.13;1.47;;;11.40;72.50;;;;;;5074498;28;20437;-75
2021/01/21 00:53:59;;;;;;;3.97;1.10;;;11.50;72.70;;;;;;5074325;28;20469;-74
2021/01/21 00:56:26;;;;;;;1.90;1.33;;;11.50;72.20;;;;;;5074071;28;21003;-75
2021/01/21 00:58:52;;;;;;;1.40;1.03;;;11.50;71.90;;;;;;5074269;28;20529;-74
2021/01/21 01:01:18;;;;;;;2.27;1.13;;;11.60;71.90;;;;;;5074273;28;20490;-74
2021/01/21 01:03:44;;;;;;;6.37;2.07;;;11.60;71.60;;;;;;5074133;28;20471;-74
2021/01/21 01:06:11;;;;;;;2.50;1.30;;;11.50;71.20;;;;;;5074252;28;20441;-74
2021/01/21 01:08:38;;;;;;;1.57;1.30;;;11.60;71.50;;;;;;5073860;28;20949;-74
2021/01/21 01:11:04;;;;;;;2.77;1.30;;;11.60;71.40;;;;;;5073872;28;20460;-74
2021/01/21 01:13:31;;;;;;;3.77;1.40;;;11.60;71.50;;;;;;5073965;28;20510;-74
2021/01/21 01:15:57;;;;;;;2.23;1.07;;;11.60;72.20;;;;;;5073986;28;20449;-74
2021/01/21 01:18:23;;;;;;;2.53;1.57;;;11.50;71.50;;;;;;5073883;28;20485;-75
2021/01/21 01:20:49;;;;;;;3.20;1.17;;;11.50;71.20;;;;;;5073397;28;20444;-74
2021/01/21 01:23:16;;;;;;;1.50;1.03;;;11.50;71.40;;;;;;5073848;28;20563;-75
2021/01/21 01:25:43;;;;;;;1.33;1.10;;;11.50;71.20;;;;;;5073586;28;20935;-75
2021/01/21 01:28:09;;;;;;;5.10;1.33;;;11.50;70.60;;;;;;5073800;28;20440;-74
2021/01/21 01:30:35;;;;;;;3.47;1.60;;;11.60;71.50;;;;;;5073798;28;20444;-74
2021/01/21 01:33:01;;;;;;;2.27;1.20;;;11.60;71.00;;;;;;5073640;28;20469;-74
2021/01/21 01:35:27;;;;;;;2.80;1.30;;;11.50;70.20;;;;;;5073363;28;20966;-74
2021/01/21 01:37:54;;;;;;;4.33;2.00;;;11.50;70.20;;;;;;5073607;28;20593;-74
2021/01/21 01:40:20;;;;;;;1.60;1.10;;;11.60;70.40;;;;;;5073394;28;20858;-75
2021/01/21 01:42:47;;;;;;;3.07;1.03;;;11.60;69.90;;;;;;5073553;28;20531;-74
2021/01/21 01:45:14;;;;;;;7.07;1.20;;;11.60;69.50;;;;;;5073621;28;20449;-75
2021/01/21 01:47:43;;;;;;;1.40;0.97;;;11.60;69.60;;;;;;5073267;28;20992;-74
2021/01/21 01:50:11;;;;;;;2.30;1.27;;;11.60;69.50;;;;;;5073512;28;20444;-74
2021/01/21 01:52:41;;;;;;;3.53;0.80;;;11.70;69.70;;;;;;5073414;28;20490;-74
2021/01/21 01:55:09;;;;;;;2.97;1.43;;;11.70;69.40;;;;;;5073254;28;20929;-74
2021/01/21 01:57:36;;;;;;;1.63;1.07;;;11.70;69.30;;;;;;5073440;28;20476;-74
2021/01/21 02:00:05;;;;;;;2.20;1.07;;;11.70;69.40;;;;;;5073436;28;20445;-74
2021/01/21 02:02:31;;;;;;;3.73;1.30;;;11.80;70.00;;;;;;5073402;28;20837;-74
2021/01/21 02:04:59;;;;;;;2.37;1.07;;;11.80;69.20;;;;;;5073093;28;20441;-74
2021/01/21 02:07:25;;;;;;;3.60;1.20;;;11.80;69.00;;;;;;5073360;28;20448;-74
2021/01/21 02:09:52;;;;;;;2.27;1.00;;;11.80;69.00;;;;;;5073043;28;20441;-75
2021/01/21 02:12:32;;;;;;;4.70;1.23;;;11.80;68.80;;;;;;5072904;28;20902;-74
2021/01/21 02:15:08;;;;;;;3.87;1.27;;;11.80;69.20;;;;;;5073424;28;20421;-75
2021/01/21 02:17:36;;;;;;;2.43;1.00;;;11.80;69.10;;;;;;5072942;28;20957;-74
2021/01/21 02:20:28;;;;;;;1.00;0.90;;;11.80;68.90;;;;;;5072973;28;20800;-74
2021/01/21 02:23:18;;;;;;;3.90;1.60;;;11.90;69.00;;;;;;5073180;28;20472;-74
2021/01/21 02:25:47;;;;;;;3.30;1.20;;;11.80;69.00;;;;;;5063915;28;20453;-75
2021/01/21 02:28:32;;;;;;;2.70;1.23;;;11.90;69.10;;;;;;5073155;28;20479;-75
2021/01/21 02:31:04;;;;;;;1.50;1.40;;;11.90;68.80;;;;;;5073180;28;20474;-75
2021/01/21 02:33:46;;;;;;;2.43;0.73;;;12.00;68.80;;;;;;5077458;28;20479;-75
2021/01/21 02:36:16;;;;;;;2.73;1.10;;;12.00;69.10;;;;;;5077123;28;20421;-75
2021/01/21 02:38:44;;;;;;;2.50;1.10;;;12.00;69.20;;;;;;5076964;28;20836;-75
2021/01/21 02:41:11;;;;;;;2.33;1.27;;;12.00;69.40;;;;;;5076951;28;20467;-75
2021/01/21 02:43:37;;;;;;;1.97;1.20;;;12.00;69.70;;;;;;5076924;28;20467;-75
2021/01/21 02:46:03;;;;;;;2.03;1.17;;;12.00;69.60;;;;;;5076564;28;20954;-75
2021/01/21 02:48:30;;;;;;;4.33;1.23;;;12.10;69.90;;;;;;5076854;28;20444;-75
2021/01/21 02:51:03;;;;;;;5.07;1.40;;;12.10;69.60;;;;;;5076795;28;20444;-75
2021/01/21 02:53:31;;;;;;;2.73;0.87;;;12.10;69.60;;;;;;5076662;28;20476;-75
2021/01/21 02:56:02;;;;;;;2.50;1.23;;;12.10;69.00;;;;;;5076332;28;20449;-75
2021/01/21 02:58:34;;;;;;;2.20;1.10;;;12.10;68.90;;;;;;5076274;28;20461;-75
2021/01/21 03:01:02;;;;;;;3.40;1.20;;;12.20;69.30;;;;;;5076614;28;20425;-75
2021/01/21 03:03:29;;;;;;;2.80;1.33;;;12.20;69.40;;;;;;5076479;28;20460;-75
2021/01/21 03:05:59;;;;;;;3.47;1.30;;;12.20;69.40;;;;;;5076227;28;20448;-75
2021/01/21 03:08:27;;;;;;;2.80;1.53;;;12.20;69.00;;;;;;5076136;28;20965;-75
2021/01/21 03:11:07;;;;;;;7.00;1.43;;;12.20;69.00;;;;;;5076149;28;20457;-75
2021/01/21 03:13:33;;;;;;;1.77;1.20;;;12.30;69.30;;;;;;5076325;28;20496;-75
2021/01/21 03:16:00;;;;;;;5.27;1.00;;;12.30;69.30;;;;;;5076356;28;20460;-75
2021/01/21 03:18:26;;;;;;;1.70;1.00;;;12.30;69.10;;;;;;5076255;28;20526;-75
2021/01/21 03:20:52;;;;;;;6.23;1.10;;;12.30;69.00;;;;;;5076228;28;20448;-75
2021/01/21 03:23:19;;;;;;;2.00;1.30;;;12.30;69.00;;;;;;5076377;28;20468;-75
2021/01/21 03:25:45;;;;;;;4.17;1.07;;;12.30;69.40;;;;;;5076174;28;20475;-75
2021/01/21 03:28:11;;;;;;;6.50;1.67;;;12.20;69.80;;;;;;5076083;28;20436;-75
2021/01/21 03:30:37;;;;;;;4.80;1.10;;;12.20;70.10;;;;;;5076050;28;20451;-75
2021/01/21 03:33:04;;;;;;;1.13;0.70;;;12.20;70.20;;;;;;5075951;28;20471;-75
2021/01/21 03:35:30;;;;;;;2.50;1.07;;;12.20;70.40;;;;;;5075966;28;20444;-75
2021/01/21 03:37:57;;;;;;;2.60;0.90;;;12.20;70.40;;;;;;5075566;28;21047;-75
2021/01/21 03:40:24;;;;;;;1.20;0.70;;;12.20;70.40;;;;;;5075872;28;20781;-75
2021/01/21 03:42:50;;;;;;;1.27;0.70;;;12.20;70.60;;;;;;5074898;28;20471;-75
2021/01/21 03:45:16;;;;;;;2.73;1.13;;;12.20;70.80;;;;;;5075749;28;20456;-75
2021/01/21 03:47:42;;;;;;;3.80;0.77;;;12.20;70.60;;;;;;5075741;28;20445;-74
2021/01/21 03:50:10;;;;;;;1.50;1.27;;;12.20;70.90;;;;;;5075747;28;20448;-75
2021/01/21 03:52:36;;;;;;;1.63;0.90;;;12.20;71.20;;;;;;5075617;28;20461;-75
2021/01/21 03:55:02;;;;;;;1.30;0.83;;;12.20;71.40;;;;;;5075682;28;20819;-75
2021/01/21 03:57:29;;;;;;;2.60;0.97;;;12.20;71.40;;;;;;5075449;28;20448;-75
2021/01/21 03:59:55;;;;;;;5.60;1.20;;;12.20;71.60;;;;;;5075537;28;20448;-75
2021/01/21 04:02:21;;;;;;;4.00;0.60;;;12.20;71.70;;;;;;5075176;28;20429;-75
2021/01/21 04:04:48;;;;;;;4.10;1.00;;;12.10;71.70;;;;;;5075448;28;20445;-75
2021/01/21 04:07:14;;;;;;;0.87;0.53;;;12.10;71.90;;;;;;5075085;28;20957;-74
2021/01/21 04:09:40;;;;;;;1.30;0.77;;;12.10;72.20;;;;;;5075322;28;20482;-75
2021/01/21 04:12:07;;;;;;;1.67;0.80;;;12.10;72.10;;;;;;5074850;28;20465;-75
2021/01/21 04:14:34;;;;;;;2.47;0.80;;;12.20;72.40;;;;;;5075894;28;20444;-74
2021/01/21 04:17:00;;;;;;;2.17;1.00;;;12.10;72.50;;;;;;5075199;28;20475;-74
2021/01/21 04:19:26;;;;;;;1.50;0.80;;;12.20;72.70;;;;;;5075083;28;20477;-75
2021/01/21 04:21:52;;;;;;;8.10;0.90;;;12.20;72.90;;;;;;5074755;28;20448;-75
2021/01/21 04:24:19;;;;;;;4.77;0.70;;;12.20;73.30;;;;;;5074976;28;20465;-74
2021/01/21 04:26:45;;;;;;;1.73;0.90;;;12.10;73.60;;;;;;5074991;28;20486;-75
2021/01/21 04:29:11;;;;;;;1.73;0.70;;;12.10;74.00;;;;;;5074991;28;20819;-75
2021/01/21 04:31:38;;;;;;;1.03;0.53;;;12.10;74.20;;;;;;5075737;28;20440;-75
2021/01/21 04:34:04;;;;;;;2.90;0.80;;;12.10;74.70;;;;;;5074809;28;20471;-75
2021/01/21 04:36:31;;;;;;;1.43;0.70;;;12.10;74.90;;;;;;5074551;28;20792;-75
2021/01/21 04:38:57;;;;;;;0.90;0.90;;;12.10;75.10;;;;;;5074663;28;20811;-75
2021/01/21 04:41:24;;;;;;;1.77;0.90;;;12.10;75.10;;;;;;5074417;28;20425;-75
2021/01/21 04:43:50;;;;;;;1.27;0.70;;;12.10;75.60;;;;;;5074608;28;20513;-75
2021/01/21 04:46:17;;;;;;;1.57;0.63;;;12.00;75.80;;;;;;5074610;28;20448;-75
2021/01/21 04:48:47;;;;;;;4.57;0.90;;;12.00;76.10;;;;;;5074611;28;20441;-75
2021/01/21 04:51:16;;;;;;;2.00;0.80;;;12.10;76.20;;;;;;5074475;28;20946;-75
2021/01/21 04:53:47;;;;;;;3.43;0.93;;;12.00;76.40;;;;;;5073706;28;20982;-75
2021/01/21 04:56:18;;;;;;;1.97;1.10;;;12.00;76.70;;;;;;5073808;28;20436;-75
2021/01/21 04:58:50;;;;;;;0.80;0.67;;;12.00;76.90;;;;;;5074363;28;20461;-75
2021/01/21 05:01:18;;;;;;;3.00;1.10;;;12.10;77.00;;;;;;5074395;28;20459;-75
2021/01/21 05:03:45;;;;;;;2.00;1.13;;;12.10;77.20;;;;;;5074322;28;20465;-75
2021/01/21 05:06:12;;;;;;;4.30;1.20;;;12.00;77.20;;;;;;5074379;28;20441;-75
2021/01/21 05:08:39;;;;;;;2.00;0.90;;;12.00;77.50;;;;;;5074279;28;20441;-75
2021/01/21 05:11:05;;;;;;;18.63;4.03;;;12.00;78.20;;;;;;5073823;28;20506;-74
2021/01/21 05:13:32;;;;;;;8.17;1.17;;;11.80;77.60;;;;;;5074044;28;20460;-74
2021/01/21 05:15:58;;;;;;;2.50;0.97;;;10.80;78.10;;;;;;5073767;28;20460;-74
2021/01/21 05:18:28;;;;;;;3.47;0.80;;;9.90;83.90;;;;;;5073603;28;20895;-74
2021/01/21 05:20:55;;;;;;;1.67;0.97;;;9.30;87.90;;;;;;5073676;28;20522;-74
2021/01/21 05:23:24;;;;;;;2.20;0.90;;;8.90;90.10;;;;;;5073851;28;20460;-74
2021/01/21 05:25:51;;;;;;;1.60;0.43;;;8.60;91.30;;;;;;5073928;28;20433;-74
2021/01/21 05:28:17;;;;;;;1.73;0.70;;;8.40;92.10;;;;;;5073598;28;20891;-74
2021/01/21 05:30:46;;;;;;;1.63;0.57;;;8.20;92.50;;;;;;5073814;28;20441;-74
2021/01/21 05:33:15;;;;;;;1.40;0.80;;;8.10;92.80;;;;;;5073476;28;20503;-74
2021/01/21 05:35:42;;;;;;;2.40;0.67;;;8.00;93.40;;;;;;5073801;28;20453;-74
2021/01/21 05:38:09;;;;;;;1.90;0.67;;;8.00;94.00;;;;;;5073674;28;20472;-74
2021/01/21 05:40:35;;;;;;;1.43;0.77;;;7.90;94.20;;;;;;5073662;28;20448;-74
2021/01/21 05:43:02;;;;;;;1.03;0.40;;;7.90;93.50;;;;;;5073458;28;20486;-74
2021/01/21 05:45:29;;;;;;;1.07;0.60;;;7.80;92.70;;;;;;5073240;28;20946;-74
2021/01/21 05:47:55;;;;;;;0.80;0.70;;;7.60;93.10;;;;;;5073631;28;20437;-74
2021/01/21 05:50:22;;;;;;;2.40;0.67;;;7.60;93.40;;;;;;5073655;28;20428;-74
2021/01/21 05:52:49;;;;;;;1.53;0.70;;;7.50;93.30;;;;;;5073463;28;20464;-74
2021/01/21 05:55:18;;;;;;;1.20;0.60;;;7.50;93.60;;;;;;5073524;28;20456;-74
2021/01/21 05:57:44;;;;;;;1.37;0.60;;;7.40;93.10;;;;;;5073388;28;20498;-74
2021/01/21 06:00:11;;;;;;;2.33;0.70;;;7.30;93.60;;;;;;5073464;28;20444;-74
2021/01/21 06:02:38;;;;;;;3.63;0.77;;;7.30;93.60;;;;;;5073368;28;20464;-74
2021/01/21 06:05:05;;;;;;;1.67;1.33;;;7.30;93.70;;;;;;5073385;28;20447;-74
2021/01/21 06:07:32;;;;;;;4.13;0.67;;;7.30;93.80;;;;;;5073300;28;20455;-74
2021/01/21 06:09:58;;;;;;;3.43;0.70;;;7.30;93.90;;;;;;5073402;28;20470;-74
2021/01/21 06:12:28;;;;;;;2.00;0.60;;;7.30;94.10;;;;;;5073174;28;20476;-74
2021/01/21 06:14:59;;;;;;;2.30;1.13;;;7.30;94.40;;;;;;5073287;28;20452;-74
2021/01/21 06:17:26;;;;;;;5.00;0.67;;;7.30;94.70;;;;;;5073362;28;20516;-74
2021/01/21 06:19:52;;;;;;;3.60;0.80;;;7.30;94.40;;;;;;5072881;28;20993;-74
2021/01/21 06:22:22;;;;;;;6.73;1.00;;;7.40;94.40;;;;;;5073164;28;20467;-74
2021/01/21 06:24:50;;;;;;;2.50;0.80;;;7.30;94.00;;;;;;5073219;28;20441;-74
2021/01/21 06:27:17;;;;;;;2.73;0.90;;;7.40;94.10;;;;;;5073182;28;20863;-74
2021/01/21 06:29:47;;;;;;;4.97;1.10;;;7.40;93.90;;;;;;5073186;28;20436;-74
2021/01/21 06:32:15;;;;;;;3.87;0.93;;;7.40;93.60;;;;;;5073056;28;20559;-74
2021/01/21 06:34:43;;;;;;;2.20;1.00;;;7.40;93.50;;;;;;5072750;28;20815;-74
2021/01/21 06:37:14;;;;;;;5.00;1.30;;;7.40;93.40;;;;;;5073119;28;20441;-74
2021/01/21 06:39:51;;;;;;;1.30;0.53;;;7.40;93.50;;;;;;5072705;28;20997;-74
2021/01/21 06:42:21;;;;;;;3.50;0.90;;;7.40;93.50;;;;;;5073108;28;20429;-75
2021/01/21 06:44:50;;;;;;;5.83;0.90;;;7.40;93.50;;;;;;5073052;28;20433;-74
2021/01/21 06:47:17;;;;;;;4.00;0.97;;;7.40;93.60;;;;;;5073032;28;20440;-75
2021/01/21 06:49:43;;;;;;;3.80;1.10;;;7.50;93.40;;;;;;5072987;28;20444;-75
2021/01/21 06:52:10;;;;;;;3.40;0.97;;;7.50;93.10;;;;;;5072967;28;20837;-75
2021/01/21 06:54:37;;;;;;;3.83;0.90;;;7.50;92.60;;;;;;5072974;28;20467;-75
2021/01/21 06:57:24;;;;;;;3.30;1.23;;;7.50;92.50;;;;;;5072595;28;20942;-75
2021/01/21 06:59:54;;;;;;;3.30;0.87;;;7.50;92.60;;;;;;5072462;28;20849;-75
2021/01/21 07:02:39;;;;;;;3.07;1.10;;;7.50;92.80;;;;;;5072779;28;20452;-75
2021/01/21 07:05:14;;;;;;;7.10;1.30;;;7.50;93.10;;;;;;5072832;28;20448;-75
2021/01/21 07:08:06;;;;;;;6.00;1.00;;;7.60;93.20;;;;;;5072521;28;20428;-75
2021/01/21 07:10:35;;;;;;;7.50;1.70;;;7.60;92.80;;;;;;5072566;28;20555;-75
2021/01/21 07:13:05;;;;;;;2.57;1.30;;;7.60;92.40;;;;;;5072698;28;20460;-75
2021/01/21 07:15:43;;;;;;;5.27;0.77;;;7.70;92.40;;;;;;5072683;28;20441;-75
2021/01/21 07:18:20;;;;;;;2.53;0.90;;;7.70;92.40;;;;;;5073858;28;20836;-75
2021/01/21 07:21:06;;;;;;;2.50;0.67;;;7.70;92.10;;;;;;5076874;28;20421;-75
2021/01/21 07:23:38;;;;;;;2.00;1.00;;;7.80;91.90;;;;;;5077013;28;20510;-75
2021/01/21 07:26:30;;;;;;;8.00;1.20;;;7.80;91.90;;;;;;5076183;28;20490;-75
2021/01/21 07:29:07;;;;;;;2.33;1.10;;;7.80;91.60;;;;;;5073103;28;20531;-75
2021/01/21 07:32:06;;;;;;;3.93;1.40;;;7.80;91.70;;;;;;5076178;28;20818;-75
2021/01/21 07:34:46;;;;;;;6.40;0.90;;;7.80;91.50;;;;;;5075708;28;20808;-75
2021/01/21 07:37:24;;;;;;;0.73;0.63;;;7.90;91.40;;;;;;5076065;28;20456;-75
2021/01/21 07:39:55;;;;;;;3.63;0.70;;;7.80;91.00;;;;;;5076469;28;20542;-75
2021/01/21 07:42:22;;;;;;;1.80;0.87;;;7.90;90.90;;;;;;5075800;28;20497;-75
2021/01/21 07:44:56;;;;;;;4.73;0.80;;;7.80;90.80;;;;;;5075849;28;20448;-75
2021/01/21 07:47:31;;;;;;;2.97;1.10;;;7.80;90.70;;;;;;5075825;28;20444;-75
2021/01/21 07:50:33;;;;;;;6.93;1.03;;;7.80;90.80;;;;;;5075503;28;20427;-75
2021/01/21 07:53:00;;;;;;;4.97;1.30;;;7.80;90.90;;;;;;5075336;28;20538;-75
2021/01/21 07:55:28;;;;;;;10.20;1.30;;;7.80;90.80;;;;;;5075639;28;20436;-74
2021/01/21 07:57:54;;;;;;;2.50;0.93;;;7.80;90.70;;;;;;5075250;28;20935;-75
2021/01/21 08:00:21;;;;;;;3.70;0.83;;;7.80;90.70;;;;;;5075524;28;20444;-75
2021/01/21 08:02:49;;;;;;;3.23;1.03;;;7.80;90.60;;;;;;5075158;28;20472;-75
2021/01/21 08:05:17;;;;;;;3.60;1.30;;;7.80;90.70;;;;;;5075489;28;20448;-75
2021/01/21 08:07:45;;;;;;;3.93;0.80;;;7.80;90.80;;;;;;5075403;28;20452;-75
2021/01/21 08:10:13;;;;;;;4.50;1.30;;;7.80;90.80;;;;;;5075317;28;20421;-74
2021/01/21 08:12:39;;;;;;;7.20;1.27;;;7.80;90.70;;;;;;5075284;28;20468;-75
2021/01/21 08:15:06;;;;;;;7.40;1.33;;;7.80;90.60;;;;;;5074987;28;20973;-74
2021/01/21 08:17:32;;;;;;;5.27;1.20;;;7.80;90.50;;;;;;5075245;28;20451;-75
2021/01/21 08:20:00;;;;;;;9.17;1.17;;;7.80;90.40;;;;;;5074832;28;20476;-75
2021/01/21 08:22:26;;;;;;;8.50;1.33;;;7.80;90.10;;;;;;5075041;28;20441;-75
2021/01/21 08:24:59;;;;;;;8.20;1.87;;;7.80;90.10;;;;;;5075082;28;20800;-75
2021/01/21 08:27:43;;;;;;;5.63;1.60;;;7.80;90.50;;;;;;5075012;28;20444;-75
2021/01/21 08:30:25;;;;;;;3.97;1.20;;;7.90;90.30;;;;;;5074917;28;20425;-75
2021/01/21 08:32:56;;;;;;;10.57;1.80;;;7.80;90.30;;;;;;5074831;28;20814;-75
2021/01/21 08:35:27;;;;;;;1.83;1.43;;;7.80;90.20;;;;;;5074981;28;20425;-75
2021/01/21 08:37:55;;;;;;;4.03;0.97;;;7.80;90.30;;;;;;5074809;28;20425;-75
2021/01/21 08:40:23;;;;;;;1.90;0.83;;;7.80;90.20;;;;;;5074385;28;20444;-75
2021/01/21 08:42:51;;;;;;;3.53;1.00;;;7.80;90.20;;;;;;5074386;28;20978;-75
2021/01/21 08:45:18;;;;;;;3.03;1.20;;;7.80;90.40;;;;;;5074743;28;20542;-75
2021/01/21 08:47:46;;;;;;;4.23;1.30;;;7.80;90.50;;;;;;5074656;28;20436;-75
2021/01/21 08:50:13;;;;;;;1.13;0.73;;;7.80;90.40;;;;;;5074522;28;20437;-75
2021/01/21 08:53:00;;;;;;;7.60;1.20;;;7.80;90.40;;;;;;5074606;28;20825;-75
2021/01/21 08:55:40;;;;;;;2.60;0.73;;;7.80;90.40;;;;;;5074551;28;20448;-75
2021/01/21 08:58:07;;;;;;;4.63;1.20;;;7.80;90.50;;;;;;5074418;28;20516;-75
2021/01/21 09:00:34;;;;;;;3.70;0.97;;;7.90;90.20;;;;;;5073992;28;20942;-75
2021/01/21 09:03:01;;;;;;;6.13;1.23;;;7.90;90.10;;;;;;5074459;28;20460;-75
2021/01/21 09:05:28;;;;;;;5.93;1.00;;;8.00;90.10;;;;;;5074274;28;20472;-75
2021/01/21 09:08:04;;;;;;;5.60;1.37;;;8.00;89.90;;;;;;5073909;28;20449;-75
2021/01/21 09:10:38;;;;;;;7.10;1.50;;;8.00;89.90;;;;;;5073998;28;20811;-75
2021/01/21 09:13:04;;;;;;;4.20;1.07;;;8.10;89.70;;;;;;5074054;28;20464;-75
2021/01/21 09:15:31;;;;;;;6.80;0.93;;;8.10;89.30;;;;;;5074059;28;20442;-75
2021/01/21 09:18:04;;;;;;;6.03;1.10;;;8.10;89.00;;;;;;5074015;28;20470;-75
2021/01/21 09:20:32;;;;;;;2.97;1.00;;;8.10;89.30;;;;;;5073999;28;20476;-75
2021/01/21 09:23:12;;;;;;;4.30;1.00;;;8.20;89.10;;;;;;5073830;28;20500;-75
2021/01/21 09:25:38;;;;;;;8.67;1.13;;;8.20;89.10;;;;;;5073681;28;20865;-75
2021/01/21 09:28:09;;;;;;;6.90;1.83;;;8.30;88.80;;;;;;5073897;28;20449;-75
2021/01/21 09:30:35;;;;;;;1.53;0.80;;;8.30;88.90;;;;;;5073584;28;20429;-75
2021/01/21 09:33:02;;;;;;;4.60;1.50;;;8.30;89.00;;;;;;5073774;28;20472;-75
2021/01/21 09:35:28;;;;;;;4.30;1.63;;;8.40;88.40;;;;;;5073827;28;20441;-74
2021/01/21 09:37:58;;;;;;;6.40;1.30;;;8.60;88.10;;;;;;5073472;28;20440;-74
2021/01/21 09:40:28;;;;;;;5.87;1.47;;;8.60;87.50;;;;;;5073277;28;20432;-74
2021/01/21 09:42:56;;;;;;;4.10;1.10;;;8.60;87.10;;;;;;5073638;28;20472;-74
2021/01/21 09:45:23;;;;;;;5.77;1.50;;;8.70;86.70;;;;;;5073624;28;20494;-74
2021/01/21 09:47:50;;;;;;;6.53;1.10;;;8.70;85.80;;;;;;5073638;28;20440;-74
2021/01/21 09:50:17;;;;;;;7.30;1.40;;;8.70;85.40;;;;;;5073309;28;20791;-74
2021/01/21 09:52:43;;;;;;;6.13;1.70;;;8.70;85.60;;;;;;5073479;28;20533;-74
2021/01/21 09:55:10;;;;;;;10.10;1.53;;;8.70;86.00;;;;;;5073545;28;20449;-74
2021/01/21 09:57:39;;;;;;;8.07;1.13;;;8.80;85.20;;;;;;5073220;28;20927;-74
2021/01/21 10:00:06;;;;;;;6.33;1.20;;;8.80;85.20;;;;;;5073465;28;20480;-74
2021/01/21 10:02:33;;;;;;;5.60;1.00;;;9.00;85.70;;;;;;5073466;28;20472;-75
2021/01/21 10:04:59;;;;;;;10.37;2.03;;;9.00;84.40;;;;;;5073182;28;20448;-74
2021/01/21 10:07:25;;;;;;;6.00;1.57;;;9.10;84.50;;;;;;5073094;28;20813;-74
2021/01/21 10:09:51;;;;;;;2.80;0.87;;;9.20;82.90;;;;;;5073395;28;20494;-74
2021/01/21 10:12:17;;;;;;;3.27;1.30;;;9.30;82.30;;;;;;5072915;28;20457;-74
2021/01/21 10:14:45;;;;;;;6.63;0.97;;;9.30;82.60;;;;;;5073363;28;20440;-74
2021/01/21 10:17:11;;;;;;;3.70;1.00;;;9.20;82.30;;;;;;5073338;28;20574;-74
2021/01/21 10:19:37;;;;;;;5.53;1.00;;;9.30;83.00;;;;;;5073244;28;20549;-74
2021/01/21 10:22:05;;;;;;;6.80;1.30;;;9.20;82.40;;;;;;5073295;28;20436;-74
2021/01/21 10:24:31;;;;;;;6.57;1.30;;;9.20;82.80;;;;;;5073157;28;20835;-74
2021/01/21 10:26:57;;;;;;;2.20;0.80;;;9.30;82.50;;;;;;5073230;28;20451;-74
2021/01/21 10:29:24;;;;;;;1.73;1.00;;;9.30;82.40;;;;;;5073208;28;20425;-75
2021/01/21 10:31:51;;;;;;;4.80;1.43;;;9.40;82.80;;;;;;5073169;28;20519;-74
2021/01/21 10:34:17;;;;;;;9.07;1.53;;;9.40;81.70;;;;;;5073116;28;20461;-74
2021/01/21 10:36:43;;;;;;;2.70;1.40;;;9.60;81.80;;;;;;5073170;28;20433;-74
2021/01/21 10:39:10;;;;;;;4.57;1.60;;;9.70;81.00;;;;;;5073024;28;20884;-74
2021/01/21 10:41:36;;;;;;;5.83;1.37;;;9.90;80.80;;;;;;5073870;28;20444;-74
2021/01/21 10:44:02;;;;;;;5.63;1.23;;;10.00;78.80;;;;;;5073918;28;20476;-74
2021/01/21 10:46:28;;;;;;;2.10;1.07;;;10.00;76.60;;;;;;5072983;28;20448;-74
2021/01/21 10:48:55;;;;;;;3.43;1.10;;;10.10;77.50;;;;;;5073101;28;20456;-74
2021/01/21 10:51:22;;;;;;;13.30;1.30;;;10.10;76.70;;;;;;5072959;28;20429;-74
2021/01/21 10:53:48;;;;;;;3.23;1.07;;;10.10;75.30;;;;;;5075097;28;20456;-74
2021/01/21 10:56:16;;;;;;;4.37;1.30;;;10.20;76.50;;;;;;5076469;28;20976;-74
2021/01/21 10:58:42;;;;;;;3.97;1.30;;;10.30;75.00;;;;;;5076292;28;20549;-74
2021/01/21 11:01:08;;;;;;;2.53;1.07;;;10.40;74.20;;;;;;5076664;28;20429;-74
2021/01/21 11:03:34;;;;;;;5.60;1.10;;;10.40;74.10;;;;;;5076555;28;20468;-75
2021/01/21 11:06:01;;;;;;;3.47;0.93;;;10.40;74.60;;;;;;5076579;28;20448;-75
2021/01/21 11:08:27;;;;;;;3.63;0.93;;;10.30;73.60;;;;;;5076572;28;20428;-74
2021/01/21 11:10:54;;;;;;;5.93;1.30;;;10.30;73.80;;;;;;5076021;28;20453;-74
2021/01/21 11:13:20;;;;;;;12.43;1.67;;;10.30;73.80;;;;;;5076089;28;20468;-74
2021/01/21 11:15:48;;;;;;;3.30;1.20;;;10.30;73.60;;;;;;5076435;28;20444;-74
2021/01/21 11:18:14;;;;;;;5.43;1.20;;;10.30;74.90;;;;;;5076344;28;20452;-74
2021/01/21 11:20:42;;;;;;;3.50;1.27;;;10.30;73.80;;;;;;5075963;28;20448;-74
2021/01/21 11:23:09;;;;;;;6.87;1.40;;;10.30;74.50;;;;;;5076252;28;20518;-74
2021/01/21 11:25:35;;;;;;;2.93;1.07;;;10.30;74.20;;;;;;5075888;28;20925;-74
2021/01/21 11:28:01;;;;;;;3.10;1.30;;;10.40;74.20;;;;;;5076146;28;20448;-74
2021/01/21 11:30:28;;;;;;;4.20;0.80;;;10.50;73.80;;;;;;5076129;28;20440;-74
2021/01/21 11:32:54;;;;;;;5.20;1.43;;;10.60;73.30;;;;;;5076015;28;20808;-75
2021/01/21 11:35:20;;;;;;;4.20;1.00;;;10.70;72.80;;;;;;5076042;28;20449;-75
2021/01/21 11:37:46;;;;;;;5.20;0.93;;;10.80;72.00;;;;;;5076030;28;20432;-75
2021/01/21 11:40:14;;;;;;;4.47;1.47;;;11.00;71.60;;;;;;5075880;28;20465;-75
2021/01/21 11:42:40;;;;;;;4.27;1.00;;;11.10;70.70;;;;;;5075882;28;20469;-74
2021/01/21 11:45:07;;;;;;;4.20;1.00;;;11.20;70.40;;;;;;5075830;28;20440;-75
2021/01/21 11:47:39;;;;;;;4.73;1.13;;;11.20;70.30;;;;;;5075788;28;20445;-74
2021/01/21 11:50:07;;;;;;;9.53;1.70;;;11.20;69.70;;;;;;5075813;28;20483;-75
2021/01/21 11:52:33;;;;;;;2.60;1.20;;;11.20;70.50;;;;;;5075718;28;20468;-74
2021/01/21 11:55:00;;;;;;;5.37;1.60;;;11.30;69.60;;;;;;5075655;28;20502;-75
2021/01/21 11:57:27;;;;;;;5.83;1.20;;;11.20;69.80;;;;;;5075319;28;20783;-75
2021/01/21 11:59:53;;;;;;;4.87;1.70;;;11.20;70.20;;;;;;5075472;28;20939;-75
2021/01/21 12:02:19;;;;;;;9.60;2.00;;;11.00;69.60;;;;;;5075562;28;20424;-75
2021/01/21 12:04:45;;;;;;;7.83;2.40;;;10.90;69.70;;;;;;5075149;28;20440;-75
2021/01/21 12:07:11;;;;;;;6.20;2.10;;;10.80;70.40;;;;;;5075167;28;20793;-75
2021/01/21 12:09:37;;;;;;;5.40;1.70;;;10.70;70.50;;;;;;5075439;28;20441;-75
2021/01/21 12:12:04;;;;;;;9.60;1.73;;;10.80;71.20;;;;;;5075005;28;20456;-75
2021/01/21 12:14:33;;;;;;;2.30;0.80;;;10.90;70.70;;;;;;5075338;28;20467;-75
2021/01/21 12:16:59;;;;;;;5.23;1.10;;;10.90;69.30;;;;;;5075251;28;20476;-75
2021/01/21 12:19:25;;;;;;;3.10;1.70;;;11.00;69.70;;;;;;5075157;28;20456;-75
2021/01/21 12:21:51;;;;;;;5.53;2.57;;;11.20;69.70;;;;;;5075093;28;20449;-75
2021/01/21 12:24:17;;;;;;;2.40;0.80;;;11.40;68.70;;;;;;5075070;28;20469;-75
2021/01/21 12:26:44;;;;;;;3.53;0.93;;;11.50;68.10;;;;;;5075109;28;20486;-75
2021/01/21 12:29:10;;;;;;;2.93;1.20;;;11.60;66.40;;;;;;5075061;28;20447;-75
2021/01/21 12:31:37;;;;;;;2.43;0.97;;;11.60;66.80;;;;;;5075025;28;20421;-75
2021/01/21 12:34:03;;;;;;;2.77;1.50;;;11.70;65.30;;;;;;5074581;28;20897;-75
2021/01/21 12:36:32;;;;;;;2.37;0.90;;;11.80;64.70;;;;;;5074869;28;20452;-75
2021/01/21 12:38:58;;;;;;;4.13;0.87;;;12.00;64.30;;;;;;5074718;28;20481;-75
2021/01/21 12:41:24;;;;;;;4.80;1.00;;;12.00;63.00;;;;;;5074781;28;20813;-75
2021/01/21 12:43:51;;;;;;;4.70;1.10;;;11.90;63.60;;;;;;5075468;28;20472;-75
2021/01/21 12:46:17;;;;;;;5.20;1.53;;;11.80;64.40;;;;;;5074663;28;20444;-75
2021/01/21 12:48:44;;;;;;;4.30;0.77;;;11.70;64.30;;;;;;5075494;28;20418;-75
2021/01/21 12:51:10;;;;;;;3.03;0.93;;;11.70;65.70;;;;;;5074648;28;20429;-75
2021/01/21 12:53:36;;;;;;;5.83;1.33;;;11.60;65.60;;;;;;5074944;28;20469;-75
2021/01/21 12:56:03;;;;;;;3.47;1.20;;;11.60;66.00;;;;;;5074495;28;20432;-76